< < Back
Terminal Aerodrome Forecast


Current Version              Previous Versions:   1  2  3  4  5  6  7  8  9  

Terminal Aerodrome Forecast

730
FTUS42 KGSP 231100
TAFCLT
TAF
KCLT 231125Z 2312/2412 35008KT P6SM SKC
     FM240600 03006KT P6SM SKC=



Latest METAR

236
SAUS70 KWBC 232000 RRE
MTRCLT
METAR KCLT 231952Z 32008KT 10SM CLR 24/M02 A2986 RMK AO2 SLP105
T02441022


USA.gov is the U.S. government's official web portal to all federal, state and local government web resources and services.